Time;durP1;ratioP1;P1;durP2;ratioP2;P2;SDS_P1;SDS_P2;PMS_P1;PMS_P2;Temp;Humidity;BMP_temperature;BMP_pressure;BME280_temperature;BME280_humidity;BME280_pressure;Samples;Min_cycle;Max_cycle;Signal;HPM_P1;HPM_P2
2023/01/15 00:01:20;;;;;;;1.20;1.20;;;;;;;6.75;100.00;100844.38;5076258;28;20291;-85
2023/01/15 00:03:48;;;;;;;0.70;0.70;;;;;;;6.61;100.00;100844.59;5083927;28;20190;-83
2023/01/15 00:06:15;;;;;;;0.50;0.50;;;;;;;6.48;100.00;100838.06;5091875;28;20202;-85
2023/01/15 00:08:42;;;;;;;0.70;0.70;;;;;;;6.44;100.00;100838.75;5087634;28;20602;-84
2023/01/15 00:11:09;;;;;;;0.60;0.60;;;;;;;6.38;100.00;100841.94;5058877;28;20225;-86
2023/01/15 00:13:36;;;;;;;0.80;0.80;;;;;;;6.36;100.00;100840.97;5074352;28;20222;-86
2023/01/15 00:16:08;;;;;;;0.73;0.73;;;;;;;6.40;100.00;100842.88;5074229;28;20632;-85
2023/01/15 00:18:34;;;;;;;0.70;0.70;;;;;;;6.43;100.00;100847.28;5075589;28;20657;-86
2023/01/15 00:21:05;;;;;;;0.60;0.60;;;;;;;6.53;100.00;100852.00;5078418;28;20195;-86
2023/01/15 00:29:02;;;;;;;0.90;0.90;;;;;;;6.48;100.00;100848.38;5090920;28;20217;-87
2023/01/15 00:31:30;;;;;;;0.83;0.83;;;;;;;6.55;100.00;100844.34;5073817;28;20207;-81
2023/01/15 00:33:57;;;;;;;0.50;0.50;;;;;;;6.42;100.00;100848.97;5073596;28;20296;-85
2023/01/15 00:36:25;;;;;;;0.60;0.60;;;;;;;6.59;100.00;100843.66;5083285;28;20207;-86
2023/01/15 00:38:52;;;;;;;0.90;0.90;;;;;;;6.41;100.00;100834.34;5093825;28;20796;-84
2023/01/15 00:41:19;;;;;;;0.70;0.70;;;;;;;6.43;100.00;100835.28;5078217;28;20267;-84
2023/01/15 00:43:46;;;;;;;0.50;0.50;;;;;;;6.49;100.00;100829.53;5073994;28;20202;-84
2023/01/15 00:46:13;;;;;;;0.70;0.70;;;;;;;6.51;100.00;100842.44;5084018;28;20201;-83
2023/01/15 00:48:40;;;;;;;0.70;0.70;;;;;;;6.37;100.00;100837.59;5076700;28;20210;-82
2023/01/15 00:51:07;;;;;;;0.60;0.60;;;;;;;6.31;100.00;100829.56;5087188;28;20229;-83
2023/01/15 00:53:35;;;;;;;0.60;0.60;;;;;;;6.36;100.00;100830.69;5093529;28;20202;-86
2023/01/15 00:56:02;;;;;;;0.60;0.60;;;;;;;6.43;100.00;100837.84;5092940;28;20271;-83
2023/01/15 00:58:28;;;;;;;0.60;0.60;;;;;;;6.48;100.00;100838.94;5080013;28;20709;-84
2023/01/15 01:00:56;;;;;;;0.67;0.67;;;;;;;6.60;100.00;100837.72;5076107;28;20214;-83
2023/01/15 01:03:23;;;;;;;0.60;0.60;;;;;;;6.56;100.00;100833.25;5078205;28;20202;-83
2023/01/15 01:05:50;;;;;;;0.70;0.70;;;;;;;6.53;100.00;100838.28;5092858;28;20225;-83
2023/01/15 01:08:18;;;;;;;0.70;0.70;;;;;;;6.59;100.00;100830.78;5081160;28;20190;-85
2023/01/15 01:10:46;;;;;;;0.80;0.80;;;;;;;6.62;100.00;100836.06;5077204;28;20214;-83
2023/01/15 01:13:13;;;;;;;0.60;0.60;;;;;;;6.48;100.00;100838.94;5072693;28;20298;-85
2023/01/15 01:15:39;;;;;;;0.60;0.60;;;;;;;6.43;100.00;100824.09;5088388;28;20205;-86
2023/01/15 01:18:06;;;;;;;0.57;0.57;;;;;;;6.46;100.00;100826.78;5081754;28;20256;-84
2023/01/15 01:20:34;;;;;;;0.70;0.70;;;;;;;6.41;100.00;100826.63;5074993;28;20581;-85
2023/01/15 01:23:00;;;;;;;1.00;1.00;;;;;;;6.30;100.00;100820.13;5092549;28;20202;-83
2023/01/15 01:25:27;;;;;;;0.60;0.60;;;;;;;5.94;100.00;100774.72;5085578;28;20618;-80
2023/01/15 01:27:55;;;;;;;0.60;0.60;;;;;;;6.11;100.00;100799.50;5092555;28;20194;-86
2023/01/15 01:30:22;;;;;;;0.60;0.60;;;;;;;6.32;100.00;100815.91;5080836;28;20268;-84
2023/01/15 01:32:49;;;;;;;0.80;0.80;;;;;;;6.25;100.00;100816.44;5072473;28;20264;-86
2023/01/15 01:35:16;;;;;;;0.60;0.60;;;;;;;6.19;100.00;100817.88;5071998;28;20198;-83
2023/01/15 01:37:42;;;;;;;0.60;0.60;;;;;;;6.22;100.00;100818.88;5072472;28;20209;-83
2023/01/15 01:40:10;;;;;;;0.70;0.70;;;;;;;6.30;100.00;100816.66;5023553;28;20226;-83
2023/01/15 01:42:37;;;;;;;0.60;0.60;;;;;;;6.24;100.00;100812.09;5072079;28;20627;-83
2023/01/15 01:45:12;;;;;;;0.70;0.70;;;;;;;6.34;100.00;100805.69;5075917;28;20669;-83
2023/01/15 01:47:39;;;;;;;0.63;0.63;;;;;;;6.25;100.00;100801.00;5072233;28;20688;-82
2023/01/15 01:50:10;;;;;;;0.70;0.70;;;;;;;6.27;100.00;100796.81;5079000;28;20681;-83
2023/01/15 01:52:42;;;;;;;0.70;0.70;;;;;;;6.27;100.00;100794.22;5079487;28;20209;-81
2023/01/15 01:55:10;;;;;;;0.60;0.60;;;;;;;6.19;100.00;100776.69;5084003;28;20359;-81
2023/01/15 01:57:38;;;;;;;0.70;0.70;;;;;;;6.14;100.00;100780.72;5073110;28;20199;-87
2023/01/15 02:00:09;;;;;;;0.60;0.60;;;;;;;6.19;100.00;100792.13;5080402;28;20249;-86
2023/01/15 02:02:37;;;;;;;0.60;0.60;;;;;;;6.20;100.00;100794.78;5071970;28;20221;-84
2023/01/15 02:05:04;;;;;;;0.80;0.80;;;;;;;6.25;100.00;100793.28;5075662;28;20202;-87
2023/01/15 02:07:33;;;;;;;0.60;0.60;;;;;;;6.18;100.00;100786.09;5052353;28;20203;-85
2023/01/15 02:10:00;;;;;;;0.80;0.80;;;;;;;6.14;100.00;100789.34;5078392;28;20245;-87
2023/01/15 02:12:34;;;;;;;0.60;0.60;;;;;;;6.15;100.00;100773.09;5091894;28;20205;-86
2023/01/15 02:15:10;;;;;;;0.47;0.47;;;;;;;6.26;100.00;100789.88;5056242;28;20206;-88
2023/01/15 02:17:47;;;;;;;4.13;2.00;;;;;;;6.21;100.00;100793.94;5071598;28;20202;-87
2023/01/15 02:20:24;;;;;;;0.70;0.70;;;;;;;6.15;100.00;100769.63;5080582;28;20253;-87
2023/01/15 02:23:28;;;;;;;0.60;0.60;;;;;;;6.23;100.00;100789.75;5072244;28;20260;-87
2023/01/15 02:26:08;;;;;;;0.70;0.70;;;;;;;6.09;100.00;100775.41;4970428;28;20198;-86
2023/01/15 02:28:38;;;;;;;0.80;0.80;;;;;;;5.98;100.00;100781.78;4970415;28;20210;-86
2023/01/15 02:31:10;;;;;;;0.93;0.93;;;;;;;6.05;100.00;100768.38;4984209;28;20197;-87
2023/01/15 02:33:40;;;;;;;0.70;0.70;;;;;;;5.97;100.00;100743.97;4957551;28;20213;-89
2023/01/15 02:36:12;;;;;;;0.90;0.90;;;;;;;6.07;100.00;100771.88;4983586;28;20617;-88
2023/01/15 02:38:43;;;;;;;0.70;0.70;;;;;;;6.05;100.00;100770.94;4971669;28;20206;-85
2023/01/15 02:41:15;;;;;;;0.80;0.80;;;;;;;6.05;100.00;100763.22;4986530;28;20225;-87
2023/01/15 02:43:46;;;;;;;0.67;0.67;;;;;;;6.04;100.00;100766.59;4989422;28;20623;-87
2023/01/15 02:46:15;;;;;;;0.93;0.93;;;;;;;6.01;100.00;100760.44;4977404;28;20206;-87
2023/01/15 02:48:46;;;;;;;0.53;0.53;;;;;;;6.00;100.00;100764.69;4971180;28;20209;-87
2023/01/15 02:51:16;;;;;;;2.10;1.47;;;;;;;5.88;100.00;100743.59;4971345;28;20206;-89
2023/01/15 02:53:46;;;;;;;0.73;0.73;;;;;;;5.94;100.00;100765.31;4975040;28;20216;-87
2023/01/15 02:56:16;;;;;;;0.67;0.67;;;;;;;6.01;100.00;100755.28;4980714;28;20202;-87
2023/01/15 02:58:46;;;;;;;0.90;0.90;;;;;;;5.94;100.00;100757.59;4985952;28;20198;-89
2023/01/15 03:01:18;;;;;;;0.70;0.70;;;;;;;5.85;100.00;100733.13;4977150;28;20225;-86
2023/01/15 03:03:51;;;;;;;12.40;1.43;;;;;;;5.97;100.00;100759.41;5081834;28;20194;-85
2023/01/15 03:06:33;;;;;;;0.60;0.60;;;;;;;5.97;100.00;100767.13;5089377;28;20689;-88
2023/01/15 03:09:01;;;;;;;0.50;0.50;;;;;;;5.98;100.00;100768.91;5078444;28;20341;-87
2023/01/15 03:11:28;;;;;;;0.80;0.80;;;;;;;5.94;100.00;100759.28;5038876;28;20214;-88
2023/01/15 03:14:02;;;;;;;0.60;0.60;;;;;;;5.99;100.00;100766.38;5085553;28;20195;-88
2023/01/15 03:16:33;;;;;;;0.50;0.50;;;;;;;6.01;100.00;100769.03;5074980;28;20209;-88
2023/01/15 03:19:05;;;;;;;0.50;0.50;;;;;;;5.96;100.00;100761.09;5024033;28;20234;-86
2023/01/15 03:21:41;;;;;;;0.50;0.50;;;;;;;6.03;100.00;100759.69;5094251;28;20221;-84
2023/01/15 03:24:10;;;;;;;0.60;0.60;;;;;;;6.06;100.00;100764.09;5095396;28;20204;-84
2023/01/15 03:26:37;;;;;;;0.77;0.77;;;;;;;6.01;100.00;100761.31;5094753;28;20692;-83
2023/01/15 03:29:08;;;;;;;0.97;0.97;;;;;;;5.79;100.00;100727.69;5076761;28;20199;-83
2023/01/15 03:31:36;;;;;;;0.73;0.73;;;;;;;5.99;100.00;100763.81;5084538;28;20206;-83
2023/01/15 03:34:03;;;;;;;0.70;0.70;;;;;;;5.38;100.00;100672.72;5074724;28;20205;-85
2023/01/15 03:36:30;;;;;;;0.90;0.90;;;;;;;5.82;100.00;100733.84;5074296;28;20561;-81
2023/01/15 03:38:58;;;;;;;0.60;0.60;;;;;;;5.70;100.00;100732.44;5074627;28;20199;-82
2023/01/15 03:41:34;;;;;;;1.33;1.33;;;;;;;5.82;100.00;100758.69;5092321;28;20221;-82
2023/01/15 03:44:11;;;;;;;0.80;0.80;;;;;;;5.99;100.00;100773.25;5086913;28;20202;-84
2023/01/15 03:46:58;;;;;;;0.50;0.50;;;;;;;6.05;100.00;100768.38;5080372;28;20190;-83
2023/01/15 03:49:37;;;;;;;0.50;0.50;;;;;;;6.02;100.00;100767.34;5092842;28;20204;-82
2023/01/15 03:52:11;;;;;;;0.73;0.73;;;;;;;5.92;100.00;100771.22;5074325;28;20646;-83
2023/01/15 03:54:46;;;;;;;0.80;0.80;;;;;;;5.87;100.00;100767.53;5075502;28;20191;-83
2023/01/15 03:57:20;;;;;;;0.67;0.67;;;;;;;5.93;100.00;100767.81;5092126;28;20201;-84
2023/01/15 03:59:51;;;;;;;0.70;0.70;;;;;;;5.87;100.00;100772.69;5089401;28;20214;-83
2023/01/15 04:02:20;;;;;;;0.50;0.50;;;;;;;5.83;100.00;100765.63;5084097;28;20206;-83
2023/01/15 04:04:48;;;;;;;0.60;0.60;;;;;;;5.89;100.00;100774.50;5094179;28;20194;-81
2023/01/15 04:07:15;;;;;;;1.27;1.27;;;;;;;5.90;100.00;100777.97;5080774;28;20211;-83
2023/01/15 04:09:42;;;;;;;0.70;0.70;;;;;;;5.92;100.00;100771.22;5074025;28;20209;-83
2023/01/15 04:12:10;;;;;;;0.70;0.70;;;;;;;5.89;100.00;100765.91;5073711;28;20198;-86
2023/01/15 04:14:37;;;;;;;0.60;0.60;;;;;;;5.93;100.00;100767.81;5038640;28;20210;-85
2023/01/15 04:17:05;;;;;;;0.80;0.80;;;;;;;5.90;100.00;100767.69;5052333;28;20595;-87
2023/01/15 04:19:32;;;;;;;0.70;0.70;;;;;;;5.96;100.00;100773.97;5093962;28;20205;-84
2023/01/15 04:21:59;;;;;;;0.73;0.73;;;;;;;6.04;100.00;100769.16;5082454;28;20215;-87
2023/01/15 04:24:26;;;;;;;0.70;0.70;;;;;;;5.84;100.00;100757.09;5073826;28;20198;-87
2023/01/15 04:26:52;;;;;;;1.23;1.23;;;;;;;6.04;100.00;100770.84;5074770;28;20642;-85
2023/01/15 04:29:20;;;;;;;0.67;0.67;;;;;;;6.02;100.00;100768.22;5024037;28;20221;-86
2023/01/15 04:31:46;;;;;;;0.67;0.67;;;;;;;5.83;100.00;100747.59;5073372;28;20226;-86
2023/01/15 04:34:15;;;;;;;0.60;0.60;;;;;;;5.82;100.00;100743.25;5073324;28;20202;-86
2023/01/15 04:36:45;;;;;;;0.63;0.63;;;;;;;5.92;100.00;100766.06;5074094;28;20202;-85
2023/01/15 04:39:12;;;;;;;0.60;0.60;;;;;;;5.85;100.00;100764.84;5073380;28;20642;-85
2023/01/15 04:44:26;;;;;;;0.60;0.60;;;;;;;5.93;100.00;100770.38;5083231;28;20206;-85
2023/01/15 04:46:54;;;;;;;0.70;0.70;;;;;;;6.10;100.00;100777.16;5079435;28;20298;-85
2023/01/15 04:49:23;;;;;;;0.60;0.60;;;;;;;6.24;100.00;100780.34;5038926;28;20685;-81
2023/01/15 04:51:50;;;;;;;0.80;0.80;;;;;;;6.28;100.00;100775.38;5079789;28;20194;-86
2023/01/15 04:54:17;;;;;;;0.60;0.60;;;;;;;6.36;100.00;100779.16;5093353;28;20259;-85
2023/01/15 04:56:45;;;;;;;0.50;0.50;;;;;;;6.37;100.00;100773.22;5083328;28;20206;-85
2023/01/15 04:59:12;;;;;;;0.60;0.60;;;;;;;6.42;100.00;100779.41;5074259;28;20210;-85
2023/01/15 05:01:39;;;;;;;0.60;0.60;;;;;;;6.46;100.00;100783.88;5086414;28;20226;-85
2023/01/15 05:04:08;;;;;;;0.80;0.80;;;;;;;6.43;100.00;100772.56;5057380;28;20194;-83
2023/01/15 05:06:36;;;;;;;0.60;0.60;;;;;;;6.55;100.00;100783.41;5087834;28;20205;-85
2023/01/15 05:09:04;;;;;;;0.70;0.70;;;;;;;6.52;100.00;100790.13;5088454;28;20199;-84
2023/01/15 05:11:31;;;;;;;0.60;0.60;;;;;;;6.32;100.00;100784.09;5072894;28;20239;-86
2023/01/15 05:13:58;;;;;;;0.70;0.70;;;;;;;6.32;100.00;100778.97;5072542;28;20206;-85
2023/01/15 05:16:28;;;;;;;0.60;0.60;;;;;;;6.16;100.00;100743.97;5074080;28;20210;-85
2023/01/15 05:18:58;;;;;;;0.60;0.60;;;;;;;6.29;100.00;100763.38;5092908;28;20202;-83
2023/01/15 05:21:27;;;;;;;0.80;0.80;;;;;;;6.37;100.00;100788.66;5092047;28;20218;-83
2023/01/15 05:23:57;;;;;;;0.60;0.60;;;;;;;6.41;100.00;100782.84;5055416;28;20560;-83
2023/01/15 05:26:24;;;;;;;0.67;0.67;;;;;;;6.41;100.00;100790.56;5088881;28;20194;-83
2023/01/15 05:28:53;;;;;;;0.50;0.50;;;;;;;6.54;100.00;100793.63;5093613;28;20220;-84
2023/01/15 05:31:21;;;;;;;0.50;0.50;;;;;;;6.38;100.00;100795.59;5111403;28;20259;-81
2023/01/15 05:33:49;;;;;;;0.80;0.80;;;;;;;6.39;100.00;100793.84;5051749;28;20198;-85
2023/01/15 05:36:17;;;;;;;0.80;0.80;;;;;;;6.31;100.00;100778.06;5096314;28;20199;-85
2023/01/15 05:38:44;;;;;;;0.70;0.70;;;;;;;6.20;100.00;100779.34;5079711;28;20195;-83
2023/01/15 05:44:01;;;;;;;0.60;0.60;;;;;;;5.93;100.00;100742.06;5086311;28;20252;-86
2023/01/15 05:46:28;;;;;;;0.60;0.60;;;;;;;6.18;100.00;100785.22;5088390;28;20194;-85
2023/01/15 05:48:55;;;;;;;0.50;0.50;;;;;;;6.13;100.00;100776.44;5072004;28;20206;-86
2023/01/15 05:51:21;;;;;;;0.90;0.90;;;;;;;6.12;100.00;100785.84;5072580;28;20207;-87
2023/01/15 05:53:48;;;;;;;0.73;0.73;;;;;;;6.14;100.00;100781.63;5020458;28;20198;-85
2023/01/15 05:56:16;;;;;;;0.60;0.60;;;;;;;6.19;100.00;100784.41;5050995;28;20195;-82
2023/01/15 05:58:43;;;;;;;0.70;0.70;;;;;;;6.08;100.00;100772.75;5071933;28;20218;-79
2023/01/15 06:01:11;;;;;;;0.70;0.70;;;;;;;6.17;100.00;100776.59;5073955;28;20275;-83
2023/01/15 06:03:38;;;;;;;0.70;0.70;;;;;;;6.10;100.00;100776.28;5083860;28;20191;-87
2023/01/15 06:06:05;;;;;;;1.07;1.07;;;;;;;6.07;100.00;100761.56;5089890;28;20194;-83
2023/01/15 06:08:32;;;;;;;0.60;0.60;;;;;;;6.01;100.00;100766.47;5091790;28;20206;-85
2023/01/15 06:10:59;;;;;;;0.80;0.80;;;;;;;5.75;100.00;100726.66;5090898;28;20234;-85
2023/01/15 06:13:27;;;;;;;1.07;1.07;;;;;;;5.96;100.00;100762.78;5087675;28;20194;-87
2023/01/15 06:15:54;;;;;;;0.50;0.50;;;;;;;5.98;100.00;100764.66;5075811;28;20581;-85
2023/01/15 06:18:23;;;;;;;8.60;2.60;;;;;;;5.87;100.00;100741.81;5080851;28;20204;-87
2023/01/15 06:20:50;;;;;;;0.60;0.60;;;;;;;6.17;100.00;100753.44;5081540;28;20249;-81
2023/01/15 06:23:17;;;;;;;0.60;0.60;;;;;;;6.17;100.00;100748.28;5081936;28;20636;-85
2023/01/15 06:25:45;;;;;;;0.70;0.70;;;;;;;6.20;100.00;100756.16;5080110;28;20210;-76
2023/01/15 06:28:12;;;;;;;0.50;0.50;;;;;;;6.02;100.00;100721.00;5079982;28;20206;-82
2023/01/15 06:30:40;;;;;;;0.60;0.60;;;;;;;6.23;100.00;100764.00;5089834;28;20205;-80
2023/01/15 06:33:07;;;;;;;2.70;2.50;;;;;;;6.28;100.00;100766.75;5089903;28;20665;-81
2023/01/15 06:35:35;;;;;;;0.97;0.97;;;;;;;6.20;100.00;100738.13;5077826;28;20199;-79
2023/01/15 06:38:02;;;;;;;0.60;0.60;;;;;;;6.30;100.00;100767.72;5078403;28;20571;-79
2023/01/15 06:40:29;;;;;;;0.60;0.60;;;;;;;6.41;100.00;100769.94;5082048;28;20606;-81
2023/01/15 06:48:28;;;;;;;0.77;0.77;;;;;;;6.65;100.00;100775.25;5072874;28;20419;-74
2023/01/15 06:50:55;;;;;;;0.93;0.93;;;;;;;6.63;100.00;100768.28;5076847;28;20662;-84
2023/01/15 06:53:22;;;;;;;0.73;0.73;;;;;;;6.80;100.00;100780.16;5072660;28;20206;-85
2023/01/15 06:55:49;;;;;;;1.07;1.07;;;;;;;6.88;100.00;100789.09;5071104;28;20348;-88
2023/01/15 06:58:16;;;;;;;0.60;0.60;;;;;;;6.98;100.00;100791.22;5086519;28;20220;-84
2023/01/15 07:00:45;;;;;;;0.67;0.67;;;;;;;7.17;100.00;100793.69;5073996;28;20206;-84
2023/01/15 07:03:13;;;;;;;0.60;0.60;;;;;;;7.18;100.00;100799.72;5078819;28;20210;-83
2023/01/15 07:05:40;;;;;;;0.50;0.50;;;;;;;7.19;100.00;100802.38;5084271;28;20247;-81
2023/01/15 07:08:06;;;;;;;1.53;1.43;;;;;;;7.01;100.00;100806.81;5047167;28;20203;-85
2023/01/15 07:10:34;;;;;;;2.73;1.40;;;;;;;7.16;100.00;100796.22;5084784;28;20238;-82
2023/01/15 07:13:01;;;;;;;0.60;0.60;;;;;;;7.33;100.00;100808.97;5049574;28;20282;-81
2023/01/15 07:15:29;;;;;;;0.60;0.60;;;;;;;7.40;100.00;100805.81;5071568;28;20191;-76
2023/01/15 07:17:58;;;;;;;0.60;0.60;;;;;;;7.49;100.00;100813.91;5087903;28;20210;-80
2023/01/15 07:20:24;;;;;;;4.47;1.57;;;;;;;7.47;100.00;100818.13;5080790;28;20235;-80
2023/01/15 07:22:52;;;;;;;1.50;1.40;;;;;;;7.17;100.00;100793.69;5020493;28;20226;-78
2023/01/15 07:25:19;;;;;;;0.70;0.70;;;;;;;7.30;100.00;100805.41;5090859;28;20225;-81
2023/01/15 07:27:46;;;;;;;0.57;0.57;;;;;;;7.37;100.00;100805.69;5074893;28;20214;-81
2023/01/15 07:30:13;;;;;;;1.03;1.03;;;;;;;7.48;100.00;100795.78;5077600;28;20203;-74
2023/01/15 07:32:40;;;;;;;0.63;0.63;;;;;;;7.54;100.00;100795.13;5074166;28;20203;-79
2023/01/15 07:35:09;;;;;;;0.90;0.90;;;;;;;7.67;100.00;100771.56;5073764;28;20210;-79
2023/01/15 07:37:36;;;;;;;0.70;0.70;;;;;;;7.64;100.00;100784.34;5081159;28;20210;-71
2023/01/15 07:40:04;;;;;;;7.63;5.77;;;;;;;7.98;100.00;100777.03;5085477;28;20202;-80
2023/01/15 07:50:44;;;;;;;0.70;0.70;;;;;;;8.29;100.00;100792.84;5080833;28;20206;-74
2023/01/15 07:53:11;;;;;;;0.80;0.80;;;;;;;8.37;100.00;100799.16;5075120;28;20213;-77
2023/01/15 07:55:38;;;;;;;0.60;0.60;;;;;;;8.43;100.00;100795.91;5088266;28;20224;-73
2023/01/15 07:58:05;;;;;;;0.60;0.60;;;;;;;8.22;100.00;100780.50;5037296;28;20206;-79
2023/01/15 08:00:31;;;;;;;0.50;0.50;;;;;;;8.34;100.00;100799.06;5074908;28;20207;-76
2023/01/15 08:02:58;;;;;;;3.13;2.73;;;;;;;8.19;100.00;100801.06;5082330;28;20222;-80
2023/01/15 08:05:25;;;;;;;1.07;1.07;;;;;;;8.25;100.00;100801.25;5082065;28;20211;-77
2023/01/15 08:07:53;;;;;;;0.83;0.83;;;;;;;8.38;100.00;100802.63;5043522;28;20199;-78
2023/01/15 08:10:20;;;;;;;0.60;0.60;;;;;;;8.29;100.00;100766.13;5072926;28;20233;-75
2023/01/15 08:15:39;;;;;;;1.43;1.43;;;;;;;8.37;100.00;100799.16;5079481;28;20214;-79
2023/01/15 08:18:06;;;;;;;0.67;0.67;;;;;;;8.40;100.00;100801.84;5081318;28;20211;-77
2023/01/15 08:20:35;;;;;;;0.83;0.83;;;;;;;8.55;100.00;100777.34;5077102;28;20203;-76
2023/01/15 08:23:03;;;;;;;0.60;0.60;;;;;;;8.44;100.00;100803.72;5072177;28;20231;-77
2023/01/15 08:25:30;;;;;;;0.70;0.70;;;;;;;8.29;100.00;100798.00;5078266;28;20198;-75
2023/01/15 08:28:00;;;;;;;0.80;0.80;;;;;;;8.52;100.00;100796.22;5083398;28;20225;-77
2023/01/15 08:30:27;;;;;;;0.50;0.50;;;;;;;8.44;100.00;100779.56;5074321;28;20231;-77
2023/01/15 08:32:59;;;;;;;0.60;0.60;;;;;;;8.60;100.00;100783.53;5074506;28;20563;-77
2023/01/15 08:35:26;;;;;;;3.40;1.43;;;;;;;8.01;100.00;100764.22;5035027;28;20210;-78
2023/01/15 08:37:53;;;;;;;0.97;0.97;;;;;;;8.12;100.00;100799.06;5073777;28;20199;-77
2023/01/15 08:40:21;;;;;;;1.23;1.13;;;;;;;7.90;100.00;100781.03;5072550;28;20296;-79
2023/01/15 08:42:47;;;;;;;0.50;0.50;;;;;;;7.77;100.00;100774.56;5089955;28;20225;-77
2023/01/15 08:45:14;;;;;;;0.70;0.70;;;;;;;7.74;100.00;100771.84;5082943;28;20195;-77
2023/01/15 08:47:41;;;;;;;2.43;2.30;;;;;;;7.64;100.00;100768.84;5076000;28;20198;-77
2023/01/15 08:50:09;;;;;;;0.67;0.67;;;;;;;7.68;100.00;100758.72;5089378;28;21795;-78
2023/01/15 08:52:37;;;;;;;0.50;0.50;;;;;;;7.68;100.00;100757.81;5090059;28;20198;-73
2023/01/15 08:55:05;;;;;;;1.23;1.23;;;;;;;7.89;100.00;100758.63;5077125;28;20720;-81
2023/01/15 08:57:33;;;;;;;1.47;1.37;;;;;;;7.92;100.00;100757.03;5028340;28;20198;-77
2023/01/15 09:00:00;;;;;;;0.50;0.50;;;;;;;8.05;100.00;100755.78;5072085;28;20207;-76
2023/01/15 09:02:28;;;;;;;2.33;2.13;;;;;;;8.09;100.00;100760.22;5080804;28;20226;-77
2023/01/15 09:04:55;;;;;;;0.50;0.50;;;;;;;8.14;100.00;100765.53;5074110;28;20593;-75
2023/01/15 09:07:22;;;;;;;0.87;0.87;;;;;;;8.21;100.00;100762.34;5081539;28;20203;-76
2023/01/15 09:09:48;;;;;;;0.70;0.70;;;;;;;7.60;100.00;100671.53;5072354;28;20199;-77
2023/01/15 09:12:16;;;;;;;2.73;2.10;;;;;;;7.70;100.00;100668.44;5075550;28;20194;-79
2023/01/15 09:14:44;;;;;;;0.50;0.50;;;;;;;8.37;100.00;100749.19;5081948;28;20210;-75
2023/01/15 09:17:10;;;;;;;0.60;0.60;;;;;;;8.30;100.00;100761.03;5073174;28;20243;-75
2023/01/15 09:19:37;;;;;;;0.60;0.60;;;;;;;7.97;100.00;100754.63;5077822;28;20199;-73
2023/01/15 09:22:04;;;;;;;1.17;1.17;;;;;;;8.14;100.00;100753.50;5051502;28;20697;-77
2023/01/15 09:24:31;;;;;;;0.70;0.70;;;;;;;8.07;100.00;100733.44;5077573;28;20209;-76
2023/01/15 09:26:57;;;;;;;0.80;0.80;;;;;;;8.18;100.00;100751.91;5075483;28;20265;-74
2023/01/15 09:29:24;;;;;;;0.70;0.70;;;;;;;8.06;100.00;100752.38;5086928;28;20206;-75
2023/01/15 09:31:52;;;;;;;0.70;0.70;;;;;;;8.20;100.00;100739.94;5072923;28;20206;-76
2023/01/15 09:34:19;;;;;;;0.60;0.60;;;;;;;8.19;100.00;100733.00;5076768;28;20198;-75
2023/01/15 09:36:46;;;;;;;0.67;0.67;;;;;;;8.26;100.00;100735.88;5076365;28;20214;-74
2023/01/15 09:39:13;;;;;;;0.97;0.97;;;;;;;8.04;100.00;100701.47;5076535;28;20253;-77
2023/01/15 09:42:06;;;;;;;0.60;0.60;;;;;;;8.17;100.00;100706.25;5080811;28;20237;-76
2023/01/15 09:44:41;;;;;;;0.80;0.80;;;;;;;8.18;100.00;100705.41;5075308;28;20211;-75
2023/01/15 09:47:14;;;;;;;1.97;1.87;;;;;;;8.05;100.00;100672.25;5076817;28;20208;-75
2023/01/15 09:49:55;;;;;;;0.50;0.50;;;;;;;8.14;100.00;100693.22;5074597;28;20206;-74
2023/01/15 09:52:30;;;;;;;0.80;0.80;;;;;;;8.30;100.00;100704.19;5082093;28;20253;-75
2023/01/15 09:55:04;;;;;;;0.50;0.50;;;;;;;8.02;100.00;100651.50;5072069;28;20202;-76
2023/01/15 09:57:32;;;;;;;0.60;0.60;;;;;;;8.44;100.00;100713.28;5072270;28;20199;-78
2023/01/15 10:00:02;;;;;;;0.60;0.60;;;;;;;8.49;100.00;100697.91;5019751;28;20286;-74
2023/01/15 10:02:39;;;;;;;0.63;0.63;;;;;;;8.54;100.00;100696.34;5083164;28;20230;-76
2023/01/15 10:05:15;;;;;;;0.60;0.60;;;;;;;8.44;100.00;100684.84;5083945;28;20819;-75
2023/01/15 10:07:51;;;;;;;0.70;0.70;;;;;;;8.61;100.00;100697.44;5071314;28;20661;-75
2023/01/15 10:10:22;;;;;;;0.50;0.50;;;;;;;8.66;100.00;100696.75;5076065;28;20642;-76
2023/01/15 10:12:54;;;;;;;0.60;0.60;;;;;;;8.71;100.00;100704.66;5079446;28;20264;-76
2023/01/15 10:15:31;;;;;;;0.40;0.40;;;;;;;8.80;100.00;100690.34;5083942;28;20198;-76
2023/01/15 10:18:00;;;;;;;0.50;0.50;;;;;;;8.76;100.00;100687.59;5071415;28;20206;-75
2023/01/15 10:20:50;;;;;;;0.60;0.60;;;;;;;8.77;100.00;100663.50;5074406;28;20203;-76
2023/01/15 10:23:30;;;;;;;0.70;0.70;;;;;;;8.94;100.00;100670.06;5071019;28;20234;-75
2023/01/15 10:26:02;;;;;;;0.50;0.50;;;;;;;8.95;100.00;100636.47;5075895;28;20213;-74
2023/01/15 10:28:31;;;;;;;0.50;0.50;;;;;;;9.11;100.00;100661.09;5080009;28;20285;-73
2023/01/15 10:31:04;;;;;;;0.67;0.67;;;;;;;9.23;100.00;100661.47;5074598;28;20539;-74
2023/01/15 10:33:57;;;;;;;0.57;0.57;;;;;;;9.27;100.00;100676.28;5074706;28;20203;-74
2023/01/15 10:36:32;;;;;;;0.70;0.70;;;;;;;9.41;100.00;100672.38;5079990;28;20198;-75
2023/01/15 10:39:10;;;;;;;0.73;0.73;;;;;;;9.42;100.00;100658.56;5070729;28;20267;-77
2023/01/15 10:41:48;;;;;;;0.63;0.63;;;;;;;9.56;100.00;100671.06;5070454;28;20263;-76
2023/01/15 10:44:21;;;;;;;0.60;0.60;;;;;;;9.33;100.00;100640.22;5074645;28;20210;-76
2023/01/15 10:46:55;;;;;;;0.80;0.80;;;;;;;9.28;100.00;100659.88;5072689;28;20202;-77
2023/01/15 10:49:28;;;;;;;0.70;0.70;;;;;;;9.04;100.00;100653.09;5079703;28;20202;-77
2023/01/15 10:51:58;;;;;;;0.60;0.60;;;;;;;8.88;100.00;100646.63;5072761;28;20201;-76
2023/01/15 10:54:29;;;;;;;0.60;0.60;;;;;;;8.88;100.00;100633.69;5090418;28;20213;-84
2023/01/15 10:57:01;;;;;;;0.50;0.50;;;;;;;8.86;100.00;100632.75;5035966;28;20218;-78
2023/01/15 10:59:38;;;;;;;0.57;0.57;;;;;;;8.78;100.00;100624.75;5069823;28;20198;-77
2023/01/15 11:02:22;;;;;;;0.50;0.50;;;;;;;8.90;100.00;100624.25;5073490;28;20673;-78
2023/01/15 11:04:50;;;;;;;0.70;0.70;;;;;;;8.97;100.00;100618.44;5090462;28;20585;-78
2023/01/15 11:07:18;;;;;;;0.60;0.60;;;;;;;9.04;100.00;100617.78;5090691;28;20319;-84
2023/01/15 11:09:45;;;;;;;0.60;0.60;;;;;;;9.20;100.00;100599.31;5090579;28;20312;-83
2023/01/15 11:21:00;;;;;;;0.60;0.60;;;;;;;9.18;100.00;100600.94;5090740;28;20343;-79
2023/01/15 11:23:27;;;;;;;0.50;0.50;;;;;;;9.25;100.00;100587.34;5090808;28;20755;-80
2023/01/15 11:25:57;;;;;;;1.30;1.30;;;;;;;9.12;100.00;100600.78;5090459;28;20284;-81
2023/01/15 11:28:38;;;;;;;0.70;0.70;;;;;;;9.24;100.00;100593.34;5090471;28;20684;-78
2023/01/15 11:31:06;;;;;;;0.70;0.70;;;;;;;9.29;100.00;100578.84;5090364;28;20710;-78
2023/01/15 11:33:33;;;;;;;1.13;1.13;;;;;;;9.08;100.00;100497.19;5093460;28;20198;-80
2023/01/15 11:36:03;;;;;;;0.80;0.80;;;;;;;9.85;100.00;100576.88;5094411;28;20667;-82
2023/01/15 11:38:37;;;;;;;4.93;2.90;;;;;;;9.88;100.00;100582.19;5094613;28;20742;-80
2023/01/15 11:41:04;;;;;;;3.00;2.50;;;;;;;10.10;100.00;100581.84;5094272;28;20730;-79
2023/01/15 11:52:04;;;;;;;0.60;0.60;;;;;;;10.15;100.00;100531.06;5094177;28;20209;-77
2023/01/15 11:54:36;;;;;;;0.60;0.60;;;;;;;10.44;100.00;100568.91;5094197;28;20571;-81
2023/01/15 11:57:05;;;;;;;1.50;1.50;;;;;;;10.07;100.00;100566.25;5094200;28;20198;-80
2023/01/15 11:59:32;;;;;;;0.60;0.60;;;;;;;9.94;100.00;100562.47;5093941;28;20214;-81
2023/01/15 12:02:03;;;;;;;0.60;0.60;;;;;;;9.96;100.00;100534.00;5094176;28;20202;-79
2023/01/15 12:04:35;;;;;;;0.60;0.60;;;;;;;9.98;100.00;100558.25;5094159;28;20201;-79
2023/01/15 12:07:05;;;;;;;0.60;0.60;;;;;;;10.01;100.00;100557.44;5058536;28;20669;-81
2023/01/15 12:09:52;;;;;;;0.60;0.60;;;;;;;10.09;100.00;100558.53;5094340;28;20194;-84
2023/01/15 12:12:27;;;;;;;0.77;0.77;;;;;;;9.76;100.00;100536.13;5094049;28;20205;-80
2023/01/15 12:15:10;;;;;;;0.50;0.50;;;;;;;10.10;100.00;100548.16;5058440;28;20193;-77
2023/01/15 12:17:53;;;;;;;0.60;0.60;;;;;;;10.24;100.00;100540.75;5093783;28;20668;-79
2023/01/15 12:20:26;;;;;;;0.73;0.73;;;;;;;10.11;100.00;100529.22;5093885;28;20615;-81